Hovedside
METAR-TAF:

METAR-TAF

Lufthavner :

Kirkenes lufthavn. Høybuktmoen

Kirkenes, Norge

breddegrad: 69-44N, lengdegrad: 029-54E, høyde over havet: 9 m

Gjeldene værobservasjon

Denne rapporten ble laget for 17 minutter siden, klokken 01:20 UTC
Vind 5 kt fra Nord-nordvest, skiftende mellom Vest-nordvest og Nord
Temperatur 0°C
Luftfuktighet 80%
Trykk 1015 hPa
Sikt 10 km eller mer

METAR: ENKR 110120Z AUTO 33005KT 300V360 9999 FEW031/// OVC064/// M00/M03 Q1015 RMK WIND 731FT 31006KT

Tid: 02:37 (01:37 UTC)

Varsel

Denne rapporten ble laget for 2 timer og 37 minutter siden, klokken 23:00 UTC
Varsel gyldig fra 11. klokken 00 UTC til 11. klokken 09 UTC
Vind 8 kt fra Nord-nordvest
Sikt 10 km eller mer
Få skyer i en høyde av 1500 ft
Brutte skyer i en høyde av 4000 ft

TAF: ENKR 102300Z 1100/1109 33008KT 9999 FEW015 BKN040

Værobservasjoner og værvarsel for over 4000 flyplasser (METAR- og TAF-rapporter).

Tilgjengelige stasjoner er representert av de røde og gule prikkene på kartet.

Hold musepekeren over prikken for å se navnet på stasjonen.

Klikk så for å se værobservasjoner og -varsler.

For å forandre kartet kan du klikke på den grønne knappen med svart kryss for å zoome inn, på den grønne knappen med strek for å zoome ut, eller på de grønne pilene for å se tilstøtende kart.


METAR-TAF: